sensor_id;sensor_type;location;lat;lon;timestamp;P1;durP1;ratioP1;P2;durP2;ratioP2
10295;SDS011;5193;51.032;6.356;2023-04-15T00:01:29;4.30;;;2.40;;
10295;SDS011;5193;51.032;6.356;2023-04-15T00:03:57;6.97;;;2.93;;
10295;SDS011;5193;51.032;6.356;2023-04-15T00:06:23;10.63;;;2.93;;
10295;SDS011;5193;51.032;6.356;2023-04-15T00:08:49;6.50;;;3.30;;
10295;SDS011;5193;51.032;6.356;2023-04-15T00:11:17;7.60;;;3.53;;
10295;SDS011;5193;51.032;6.356;2023-04-15T00:13:44;7.07;;;3.80;;
10295;SDS011;5193;51.032;6.356;2023-04-15T00:16:09;10.90;;;6.67;;
10295;SDS011;5193;51.032;6.356;2023-04-15T00:18:35;11.97;;;7.83;;
10295;SDS011;5193;51.032;6.356;2023-04-15T00:21:02;10.67;;;6.40;;
10295;SDS011;5193;51.032;6.356;2023-04-15T00:23:28;12.63;;;4.90;;
10295;SDS011;5193;51.032;6.356;2023-04-15T00:25:54;12.30;;;3.47;;
10295;SDS011;5193;51.032;6.356;2023-04-15T00:28:20;10.17;;;3.67;;
10295;SDS011;5193;51.032;6.356;2023-04-15T00:30:46;9.03;;;4.57;;
10295;SDS011;5193;51.032;6.356;2023-04-15T00:33:12;5.67;;;3.10;;
10295;SDS011;5193;51.032;6.356;2023-04-15T00:35:38;6.87;;;3.40;;
10295;SDS011;5193;51.032;6.356;2023-04-15T00:38:05;5.60;;;3.03;;
10295;SDS011;5193;51.032;6.356;2023-04-15T00:40:34;6.70;;;2.90;;
10295;SDS011;5193;51.032;6.356;2023-04-15T00:43:00;5.20;;;2.80;;
10295;SDS011;5193;51.032;6.356;2023-04-15T00:45:25;4.93;;;2.77;;
10295;SDS011;5193;51.032;6.356;2023-04-15T00:47:52;3.83;;;2.63;;
10295;SDS011;5193;51.032;6.356;2023-04-15T00:50:18;6.50;;;2.57;;
10295;SDS011;5193;51.032;6.356;2023-04-15T00:52:43;6.17;;;2.80;;
10295;SDS011;5193;51.032;6.356;2023-04-15T00:55:09;3.33;;;2.50;;
10295;SDS011;5193;51.032;6.356;2023-04-15T00:57:35;5.93;;;2.90;;
10295;SDS011;5193;51.032;6.356;2023-04-15T01:00:01;6.53;;;2.97;;
10295;SDS011;5193;51.032;6.356;2023-04-15T01:02:29;5.40;;;3.00;;
10295;SDS011;5193;51.032;6.356;2023-04-15T01:04:56;7.57;;;3.10;;
10295;SDS011;5193;51.032;6.356;2023-04-15T01:07:22;7.10;;;3.40;;
10295;SDS011;5193;51.032;6.356;2023-04-15T01:09:47;6.33;;;2.93;;
10295;SDS011;5193;51.032;6.356;2023-04-15T01:12:13;8.83;;;3.30;;
10295;SDS011;5193;51.032;6.356;2023-04-15T01:14:40;7.03;;;3.13;;
10295;SDS011;5193;51.032;6.356;2023-04-15T01:17:06;8.07;;;2.60;;
10295;SDS011;5193;51.032;6.356;2023-04-15T01:19:31;5.07;;;2.57;;
10295;SDS011;5193;51.032;6.356;2023-04-15T01:21:57;6.60;;;2.50;;
10295;SDS011;5193;51.032;6.356;2023-04-15T01:24:23;3.93;;;2.50;;
10295;SDS011;5193;51.032;6.356;2023-04-15T01:26:51;5.17;;;2.87;;
10295;SDS011;5193;51.032;6.356;2023-04-15T01:29:18;7.40;;;2.70;;
10295;SDS011;5193;51.032;6.356;2023-04-15T01:31:53;4.70;;;2.93;;
10295;SDS011;5193;51.032;6.356;2023-04-15T01:34:19;5.97;;;2.47;;
10295;SDS011;5193;51.032;6.356;2023-04-15T01:36:46;3.20;;;2.57;;
10295;SDS011;5193;51.032;6.356;2023-04-15T01:39:12;3.47;;;2.03;;
10295;SDS011;5193;51.032;6.356;2023-04-15T01:41:38;5.40;;;2.70;;
10295;SDS011;5193;51.032;6.356;2023-04-15T01:44:05;8.73;;;2.87;;
10295;SDS011;5193;51.032;6.356;2023-04-15T01:46:31;3.63;;;2.60;;
10295;SDS011;5193;51.032;6.356;2023-04-15T01:48:56;5.93;;;2.43;;
10295;SDS011;5193;51.032;6.356;2023-04-15T01:51:22;9.03;;;2.70;;
10295;SDS011;5193;51.032;6.356;2023-04-15T01:53:48;13.30;;;2.90;;
10295;SDS011;5193;51.032;6.356;2023-04-15T01:56:13;16.10;;;2.90;;
10295;SDS011;5193;51.032;6.356;2023-04-15T01:58:39;9.43;;;2.83;;
10295;SDS011;5193;51.032;6.356;2023-04-15T02:01:05;10.47;;;3.40;;
10295;SDS011;5193;51.032;6.356;2023-04-15T02:03:31;8.83;;;3.33;;
10295;SDS011;5193;51.032;6.356;2023-04-15T02:05:56;11.47;;;3.20;;
10295;SDS011;5193;51.032;6.356;2023-04-15T02:08:22;11.23;;;3.10;;
10295;SDS011;5193;51.032;6.356;2023-04-15T02:10:48;11.50;;;3.73;;
10295;SDS011;5193;51.032;6.356;2023-04-15T02:13:13;8.60;;;3.13;;
10295;SDS011;5193;51.032;6.356;2023-04-15T02:15:39;9.10;;;3.33;;
10295;SDS011;5193;51.032;6.356;2023-04-15T02:18:05;8.33;;;3.67;;
10295;SDS011;5193;51.032;6.356;2023-04-15T02:20:30;8.33;;;2.87;;
10295;SDS011;5193;51.032;6.356;2023-04-15T02:22:56;4.47;;;2.77;;
10295;SDS011;5193;51.032;6.356;2023-04-15T02:25:21;9.17;;;3.40;;
10295;SDS011;5193;51.032;6.356;2023-04-15T02:27:47;8.10;;;3.13;;
10295;SDS011;5193;51.032;6.356;2023-04-15T02:30:13;5.67;;;2.77;;
10295;SDS011;5193;51.032;6.356;2023-04-15T02:32:39;6.33;;;3.07;;
10295;SDS011;5193;51.032;6.356;2023-04-15T02:35:07;6.10;;;2.70;;
10295;SDS011;5193;51.032;6.356;2023-04-15T02:37:34;7.83;;;3.13;;
10295;SDS011;5193;51.032;6.356;2023-04-15T02:40:05;5.60;;;2.90;;
10295;SDS011;5193;51.032;6.356;2023-04-15T02:42:33;7.00;;;3.30;;
10295;SDS011;5193;51.032;6.356;2023-04-15T02:44:58;7.67;;;3.43;;
10295;SDS011;5193;51.032;6.356;2023-04-15T02:47:24;10.90;;;3.67;;
10295;SDS011;5193;51.032;6.356;2023-04-15T02:49:50;7.17;;;3.30;;
10295;SDS011;5193;51.032;6.356;2023-04-15T02:52:16;9.40;;;3.10;;
10295;SDS011;5193;51.032;6.356;2023-04-15T02:54:41;9.73;;;3.33;;
10295;SDS011;5193;51.032;6.356;2023-04-15T02:57:07;10.50;;;3.43;;
10295;SDS011;5193;51.032;6.356;2023-04-15T02:59:33;13.07;;;3.10;;
10295;SDS011;5193;51.032;6.356;2023-04-15T03:01:58;8.50;;;2.70;;
10295;SDS011;5193;51.032;6.356;2023-04-15T03:04:27;5.77;;;2.80;;
10295;SDS011;5193;51.032;6.356;2023-04-15T03:06:54;6.80;;;2.43;;
10295;SDS011;5193;51.032;6.356;2023-04-15T03:09:20;6.40;;;2.77;;
10295;SDS011;5193;51.032;6.356;2023-04-15T03:11:46;6.13;;;3.07;;
10295;SDS011;5193;51.032;6.356;2023-04-15T03:14:12;4.57;;;3.20;;
10295;SDS011;5193;51.032;6.356;2023-04-15T03:16:37;6.63;;;3.23;;
10295;SDS011;5193;51.032;6.356;2023-04-15T03:19:03;5.73;;;3.20;;
10295;SDS011;5193;51.032;6.356;2023-04-15T03:21:28;5.57;;;3.57;;
10295;SDS011;5193;51.032;6.356;2023-04-15T03:23:56;9.90;;;3.60;;
10295;SDS011;5193;51.032;6.356;2023-04-15T03:26:28;7.93;;;3.37;;
10295;SDS011;5193;51.032;6.356;2023-04-15T03:28:55;6.47;;;3.23;;
10295;SDS011;5193;51.032;6.356;2023-04-15T03:31:21;8.23;;;4.07;;
10295;SDS011;5193;51.032;6.356;2023-04-15T03:33:46;10.27;;;3.37;;
10295;SDS011;5193;51.032;6.356;2023-04-15T03:36:12;5.83;;;3.87;;
10295;SDS011;5193;51.032;6.356;2023-04-15T03:38:38;6.03;;;3.17;;
10295;SDS011;5193;51.032;6.356;2023-04-15T03:41:04;11.90;;;4.23;;
10295;SDS011;5193;51.032;6.356;2023-04-15T03:43:29;8.67;;;4.03;;
10295;SDS011;5193;51.032;6.356;2023-04-15T03:45:55;12.30;;;4.17;;
10295;SDS011;5193;51.032;6.356;2023-04-15T03:48:21;8.37;;;4.17;;
10295;SDS011;5193;51.032;6.356;2023-04-15T03:50:46;8.90;;;4.37;;
10295;SDS011;5193;51.032;6.356;2023-04-15T03:53:12;16.33;;;4.50;;
10295;SDS011;5193;51.032;6.356;2023-04-15T03:55:38;17.87;;;3.80;;
10295;SDS011;5193;51.032;6.356;2023-04-15T03:58:03;16.80;;;4.67;;
10295;SDS011;5193;51.032;6.356;2023-04-15T04:00:29;17.37;;;4.83;;
10295;SDS011;5193;51.032;6.356;2023-04-15T04:02:55;19.50;;;5.40;;
10295;SDS011;5193;51.032;6.356;2023-04-15T04:05:20;17.60;;;5.93;;
10295;SDS011;5193;51.032;6.356;2023-04-15T04:07:46;24.33;;;6.20;;
10295;SDS011;5193;51.032;6.356;2023-04-15T04:10:11;17.67;;;5.00;;
10295;SDS011;5193;51.032;6.356;2023-04-15T04:12:37;21.23;;;5.00;;
10295;SDS011;5193;51.032;6.356;2023-04-15T04:15:03;36.13;;;5.20;;
10295;SDS011;5193;51.032;6.356;2023-04-15T04:17:29;18.97;;;5.57;;
10295;SDS011;5193;51.032;6.356;2023-04-15T04:19:55;14.17;;;4.67;;
10295;SDS011;5193;51.032;6.356;2023-04-15T04:22:23;18.07;;;4.80;;
10295;SDS011;5193;51.032;6.356;2023-04-15T04:24:50;13.40;;;4.53;;
10295;SDS011;5193;51.032;6.356;2023-04-15T04:27:15;14.13;;;4.00;;
10295;SDS011;5193;51.032;6.356;2023-04-15T04:29:41;13.67;;;4.47;;
10295;SDS011;5193;51.032;6.356;2023-04-15T04:32:06;19.80;;;4.17;;
10295;SDS011;5193;51.032;6.356;2023-04-15T04:34:32;22.40;;;5.00;;
10295;SDS011;5193;51.032;6.356;2023-04-15T04:36:58;21.17;;;4.60;;
10295;SDS011;5193;51.032;6.356;2023-04-15T04:39:23;27.03;;;4.90;;
10295;SDS011;5193;51.032;6.356;2023-04-15T04:41:49;25.73;;;4.87;;
10295;SDS011;5193;51.032;6.356;2023-04-15T04:44:16;21.73;;;5.17;;
10295;SDS011;5193;51.032;6.356;2023-04-15T04:46:42;21.73;;;5.97;;
10295;SDS011;5193;51.032;6.356;2023-04-15T04:49:07;26.90;;;6.17;;
10295;SDS011;5193;51.032;6.356;2023-04-15T04:51:33;19.20;;;4.77;;
10295;SDS011;5193;51.032;6.356;2023-04-15T04:53:59;17.27;;;5.13;;
10295;SDS011;5193;51.032;6.356;2023-04-15T04:56:25;11.90;;;5.67;;
10295;SDS011;5193;51.032;6.356;2023-04-15T04:58:51;9.80;;;5.30;;
10295;SDS011;5193;51.032;6.356;2023-04-15T05:01:16;21.80;;;6.40;;
10295;SDS011;5193;51.032;6.356;2023-04-15T05:03:42;14.03;;;5.87;;
10295;SDS011;5193;51.032;6.356;2023-04-15T05:06:08;16.73;;;5.90;;
10295;SDS011;5193;51.032;6.356;2023-04-15T05:08:33;15.63;;;6.57;;
10295;SDS011;5193;51.032;6.356;2023-04-15T05:10:59;15.93;;;7.37;;
10295;SDS011;5193;51.032;6.356;2023-04-15T05:13:24;17.80;;;7.00;;
10295;SDS011;5193;51.032;6.356;2023-04-15T05:15:51;29.10;;;7.10;;
10295;SDS011;5193;51.032;6.356;2023-04-15T05:18:16;15.97;;;7.30;;
10295;SDS011;5193;51.032;6.356;2023-04-15T05:20:42;14.80;;;6.83;;
10295;SDS011;5193;51.032;6.356;2023-04-15T05:25:33;20.87;;;6.77;;
10295;SDS011;5193;51.032;6.356;2023-04-15T05:27:58;20.83;;;7.20;;
10295;SDS011;5193;51.032;6.356;2023-04-15T05:30:24;15.53;;;6.93;;
10295;SDS011;5193;51.032;6.356;2023-04-15T05:32:50;25.10;;;7.60;;
10295;SDS011;5193;51.032;6.356;2023-04-15T05:35:16;17.93;;;7.37;;
10295;SDS011;5193;51.032;6.356;2023-04-15T05:37:41;13.33;;;6.93;;
10295;SDS011;5193;51.032;6.356;2023-04-15T05:40:07;22.23;;;7.67;;
10295;SDS011;5193;51.032;6.356;2023-04-15T05:42:34;24.07;;;7.80;;
10295;SDS011;5193;51.032;6.356;2023-04-15T05:45:00;23.07;;;8.70;;
10295;SDS011;5193;51.032;6.356;2023-04-15T05:47:29;13.97;;;8.37;;
10295;SDS011;5193;51.032;6.356;2023-04-15T05:49:55;17.93;;;7.97;;
10295;SDS011;5193;51.032;6.356;2023-04-15T05:52:20;14.97;;;8.13;;
10295;SDS011;5193;51.032;6.356;2023-04-15T05:54:46;14.97;;;8.83;;
10295;SDS011;5193;51.032;6.356;2023-04-15T05:57:11;15.87;;;9.80;;
10295;SDS011;5193;51.032;6.356;2023-04-15T05:59:37;25.43;;;11.13;;
10295;SDS011;5193;51.032;6.356;2023-04-15T06:02:03;20.93;;;10.63;;
10295;SDS011;5193;51.032;6.356;2023-04-15T06:04:30;18.30;;;10.77;;
10295;SDS011;5193;51.032;6.356;2023-04-15T06:06:56;19.27;;;10.83;;
10295;SDS011;5193;51.032;6.356;2023-04-15T06:09:22;25.80;;;11.87;;
10295;SDS011;5193;51.032;6.356;2023-04-15T06:11:47;19.03;;;11.80;;
10295;SDS011;5193;51.032;6.356;2023-04-15T06:14:13;22.37;;;11.70;;
10295;SDS011;5193;51.032;6.356;2023-04-15T06:16:38;23.10;;;11.50;;
10295;SDS011;5193;51.032;6.356;2023-04-15T06:19:04;31.27;;;11.73;;
10295;SDS011;5193;51.032;6.356;2023-04-15T06:21:29;22.93;;;12.27;;
10295;SDS011;5193;51.032;6.356;2023-04-15T06:23:56;19.20;;;10.77;;
10295;SDS011;5193;51.032;6.356;2023-04-15T06:26:25;22.77;;;11.23;;
10295;SDS011;5193;51.032;6.356;2023-04-15T06:28:51;19.03;;;12.13;;
10295;SDS011;5193;51.032;6.356;2023-04-15T06:31:16;19.50;;;10.83;;
10295;SDS011;5193;51.032;6.356;2023-04-15T06:33:42;20.00;;;10.20;;
10295;SDS011;5193;51.032;6.356;2023-04-15T06:36:07;22.80;;;12.50;;
10295;SDS011;5193;51.032;6.356;2023-04-15T06:38:33;21.53;;;11.13;;
10295;SDS011;5193;51.032;6.356;2023-04-15T06:40:58;19.50;;;9.90;;
10295;SDS011;5193;51.032;6.356;2023-04-15T06:43:24;16.67;;;9.77;;
10295;SDS011;5193;51.032;6.356;2023-04-15T06:45:50;13.73;;;9.50;;
10295;SDS011;5193;51.032;6.356;2023-04-15T06:48:16;15.73;;;10.17;;
10295;SDS011;5193;51.032;6.356;2023-04-15T06:50:41;19.27;;;10.27;;
10295;SDS011;5193;51.032;6.356;2023-04-15T06:53:07;18.00;;;9.77;;
10295;SDS011;5193;51.032;6.356;2023-04-15T06:55:33;19.73;;;11.00;;
10295;SDS011;5193;51.032;6.356;2023-04-15T06:57:58;13.13;;;9.57;;
10295;SDS011;5193;51.032;6.356;2023-04-15T07:00:24;19.20;;;9.37;;
10295;SDS011;5193;51.032;6.356;2023-04-15T07:02:50;15.67;;;10.13;;
10295;SDS011;5193;51.032;6.356;2023-04-15T07:05:15;12.90;;;9.90;;
10295;SDS011;5193;51.032;6.356;2023-04-15T07:07:42;14.37;;;9.83;;
10295;SDS011;5193;51.032;6.356;2023-04-15T07:10:07;16.63;;;9.90;;
10295;SDS011;5193;51.032;6.356;2023-04-15T07:12:33;16.43;;;10.77;;
10295;SDS011;5193;51.032;6.356;2023-04-15T07:14:59;15.60;;;10.83;;
10295;SDS011;5193;51.032;6.356;2023-04-15T07:17:25;16.77;;;10.63;;
10295;SDS011;5193;51.032;6.356;2023-04-15T07:19:51;15.87;;;11.07;;
10295;SDS011;5193;51.032;6.356;2023-04-15T07:22:16;16.20;;;11.03;;
10295;SDS011;5193;51.032;6.356;2023-04-15T07:24:42;15.17;;;11.33;;
10295;SDS011;5193;51.032;6.356;2023-04-15T07:27:07;15.40;;;11.00;;
10295;SDS011;5193;51.032;6.356;2023-04-15T07:29:33;15.67;;;11.37;;
10295;SDS011;5193;51.032;6.356;2023-04-15T07:31:58;17.33;;;12.43;;
10295;SDS011;5193;51.032;6.356;2023-04-15T07:34:24;17.73;;;12.47;;
10295;SDS011;5193;51.032;6.356;2023-04-15T07:36:50;18.10;;;12.43;;
10295;SDS011;5193;51.032;6.356;2023-04-15T07:39:16;19.73;;;12.63;;
10295;SDS011;5193;51.032;6.356;2023-04-15T07:41:42;19.40;;;12.47;;
10295;SDS011;5193;51.032;6.356;2023-04-15T07:44:07;17.17;;;10.13;;
10295;SDS011;5193;51.032;6.356;2023-04-15T07:46:33;16.93;;;12.90;;
10295;SDS011;5193;51.032;6.356;2023-04-15T07:48:59;18.53;;;11.90;;
10295;SDS011;5193;51.032;6.356;2023-04-15T07:51:25;14.83;;;10.93;;
10295;SDS011;5193;51.032;6.356;2023-04-15T07:53:50;19.63;;;11.80;;
10295;SDS011;5193;51.032;6.356;2023-04-15T07:56:16;13.80;;;9.77;;
10295;SDS011;5193;51.032;6.356;2023-04-15T07:58:42;14.27;;;10.57;;
10295;SDS011;5193;51.032;6.356;2023-04-15T08:01:07;13.60;;;10.27;;
10295;SDS011;5193;51.032;6.356;2023-04-15T08:03:33;12.63;;;8.67;;
10295;SDS011;5193;51.032;6.356;2023-04-15T08:05:59;11.53;;;9.10;;
10295;SDS011;5193;51.032;6.356;2023-04-15T08:08:24;14.07;;;9.37;;
10295;SDS011;5193;51.032;6.356;2023-04-15T08:10:50;12.57;;;8.60;;
10295;SDS011;5193;51.032;6.356;2023-04-15T08:13:16;11.17;;;8.50;;
10295;SDS011;5193;51.032;6.356;2023-04-15T08:15:42;10.60;;;8.13;;
10295;SDS011;5193;51.032;6.356;2023-04-15T08:18:07;13.03;;;8.07;;
10295;SDS011;5193;51.032;6.356;2023-04-15T08:20:33;9.93;;;7.77;;
10295;SDS011;5193;51.032;6.356;2023-04-15T08:22:59;9.90;;;7.97;;
10295;SDS011;5193;51.032;6.356;2023-04-15T08:25:24;7.43;;;6.13;;
10295;SDS011;5193;51.032;6.356;2023-04-15T08:27:51;8.20;;;6.17;;
10295;SDS011;5193;51.032;6.356;2023-04-15T08:30:19;9.37;;;6.80;;
10295;SDS011;5193;51.032;6.356;2023-04-15T08:32:45;10.50;;;6.53;;
10295;SDS011;5193;51.032;6.356;2023-04-15T08:35:11;6.47;;;5.73;;
10295;SDS011;5193;51.032;6.356;2023-04-15T08:37:37;8.67;;;6.20;;
10295;SDS011;5193;51.032;6.356;2023-04-15T08:40:03;9.80;;;7.13;;
10295;SDS011;5193;51.032;6.356;2023-04-15T08:42:35;11.70;;;7.20;;
10295;SDS011;5193;51.032;6.356;2023-04-15T08:45:05;8.20;;;6.50;;
10295;SDS011;5193;51.032;6.356;2023-04-15T08:47:35;7.70;;;6.20;;
10295;SDS011;5193;51.032;6.356;2023-04-15T08:50:03;8.30;;;6.67;;
10295;SDS011;5193;51.032;6.356;2023-04-15T08:52:33;9.27;;;6.70;;
10295;SDS011;5193;51.032;6.356;2023-04-15T08:54:58;9.20;;;7.00;;
10295;SDS011;5193;51.032;6.356;2023-04-15T08:57:27;9.00;;;7.13;;
10295;SDS011;5193;51.032;6.356;2023-04-15T08:59:54;9.93;;;7.33;;
10295;SDS011;5193;51.032;6.356;2023-04-15T09:02:21;8.00;;;6.87;;
10295;SDS011;5193;51.032;6.356;2023-04-15T09:04:48;9.37;;;6.97;;
10295;SDS011;5193;51.032;6.356;2023-04-15T09:07:13;9.83;;;7.10;;
10295;SDS011;5193;51.032;6.356;2023-04-15T09:09:39;8.07;;;6.37;;
10295;SDS011;5193;51.032;6.356;2023-04-15T09:12:06;10.43;;;7.10;;
10295;SDS011;5193;51.032;6.356;2023-04-15T09:14:32;11.07;;;6.67;;
10295;SDS011;5193;51.032;6.356;2023-04-15T09:16:59;9.17;;;6.07;;
10295;SDS011;5193;51.032;6.356;2023-04-15T09:19:26;7.73;;;5.70;;
10295;SDS011;5193;51.032;6.356;2023-04-15T09:21:52;8.57;;;5.57;;
10295;SDS011;5193;51.032;6.356;2023-04-15T09:24:20;8.43;;;4.73;;
10295;SDS011;5193;51.032;6.356;2023-04-15T09:26:46;7.93;;;4.93;;
10295;SDS011;5193;51.032;6.356;2023-04-15T09:29:12;9.00;;;5.90;;
10295;SDS011;5193;51.032;6.356;2023-04-15T09:31:38;9.03;;;6.00;;
10295;SDS011;5193;51.032;6.356;2023-04-15T09:34:05;9.27;;;5.80;;
10295;SDS011;5193;51.032;6.356;2023-04-15T09:36:50;7.53;;;5.60;;
10295;SDS011;5193;51.032;6.356;2023-04-15T09:39:18;10.80;;;5.87;;
10295;SDS011;5193;51.032;6.356;2023-04-15T09:41:43;11.40;;;8.00;;
10295;SDS011;5193;51.032;6.356;2023-04-15T09:44:25;10.13;;;7.93;;
10295;SDS011;5193;51.032;6.356;2023-04-15T09:46:51;9.57;;;6.40;;
10295;SDS011;5193;51.032;6.356;2023-04-15T09:49:16;6.40;;;4.13;;
10295;SDS011;5193;51.032;6.356;2023-04-15T09:51:42;7.30;;;3.97;;
10295;SDS011;5193;51.032;6.356;2023-04-15T09:54:08;7.30;;;4.03;;
10295;SDS011;5193;51.032;6.356;2023-04-15T09:56:34;7.47;;;4.27;;
10295;SDS011;5193;51.032;6.356;2023-04-15T09:59:02;9.07;;;4.93;;
10295;SDS011;5193;51.032;6.356;2023-04-15T10:01:29;3.53;;;3.13;;
10295;SDS011;5193;51.032;6.356;2023-04-15T10:03:55;16.53;;;7.87;;
10295;SDS011;5193;51.032;6.356;2023-04-15T10:06:22;9.30;;;5.30;;
10295;SDS011;5193;51.032;6.356;2023-04-15T10:08:50;4.60;;;3.40;;
10295;SDS011;5193;51.032;6.356;2023-04-15T10:11:17;7.40;;;3.80;;
10295;SDS011;5193;51.032;6.356;2023-04-15T10:13:44;6.57;;;3.93;;
10295;SDS011;5193;51.032;6.356;2023-04-15T10:16:13;3.37;;;2.90;;
10295;SDS011;5193;51.032;6.356;2023-04-15T10:18:44;3.33;;;2.57;;
10295;SDS011;5193;51.032;6.356;2023-04-15T10:21:20;3.50;;;2.50;;
10295;SDS011;5193;51.032;6.356;2023-04-15T10:23:47;3.10;;;2.70;;
10295;SDS011;5193;51.032;6.356;2023-04-15T10:26:14;3.33;;;2.77;;
10295;SDS011;5193;51.032;6.356;2023-04-15T10:28:41;5.80;;;3.50;;
10295;SDS011;5193;51.032;6.356;2023-04-15T10:31:11;6.40;;;4.03;;
10295;SDS011;5193;51.032;6.356;2023-04-15T10:33:39;5.23;;;3.53;;
10295;SDS011;5193;51.032;6.356;2023-04-15T10:36:06;3.67;;;3.23;;
10295;SDS011;5193;51.032;6.356;2023-04-15T10:38:44;3.13;;;2.67;;
10295;SDS011;5193;51.032;6.356;2023-04-15T10:41:23;3.07;;;2.23;;
10295;SDS011;5193;51.032;6.356;2023-04-15T10:43:54;4.47;;;2.63;;
10295;SDS011;5193;51.032;6.356;2023-04-15T10:46:24;2.60;;;2.10;;
10295;SDS011;5193;51.032;6.356;2023-04-15T10:49:09;6.50;;;2.50;;
10295;SDS011;5193;51.032;6.356;2023-04-15T10:51:41;3.83;;;2.77;;
10295;SDS011;5193;51.032;6.356;2023-04-15T10:54:12;2.67;;;2.43;;
10295;SDS011;5193;51.032;6.356;2023-04-15T10:57:36;2.53;;;2.33;;
10295;SDS011;5193;51.032;6.356;2023-04-15T11:02:44;3.53;;;2.60;;
10295;SDS011;5193;51.032;6.356;2023-04-15T11:05:16;2.73;;;2.40;;
10295;SDS011;5193;51.032;6.356;2023-04-15T11:12:38;4.83;;;3.97;;
10295;SDS011;5193;51.032;6.356;2023-04-15T11:17:51;4.13;;;3.73;;
10295;SDS011;5193;51.032;6.356;2023-04-15T11:20:17;4.10;;;3.53;;
10295;SDS011;5193;51.032;6.356;2023-04-15T11:22:47;4.43;;;2.90;;
10295;SDS011;5193;51.032;6.356;2023-04-15T11:27:49;4.63;;;2.90;;
10295;SDS011;5193;51.032;6.356;2023-04-15T11:30:18;2.47;;;1.97;;
10295;SDS011;5193;51.032;6.356;2023-04-15T11:32:48;4.40;;;2.40;;
10295;SDS011;5193;51.032;6.356;2023-04-15T11:35:15;2.93;;;2.50;;
10295;SDS011;5193;51.032;6.356;2023-04-15T11:37:42;2.97;;;2.53;;
10295;SDS011;5193;51.032;6.356;2023-04-15T11:40:08;3.00;;;2.70;;
10295;SDS011;5193;51.032;6.356;2023-04-15T11:42:34;2.83;;;2.60;;
10295;SDS011;5193;51.032;6.356;2023-04-15T11:45:07;3.20;;;2.27;;
10295;SDS011;5193;51.032;6.356;2023-04-15T11:47:37;3.13;;;2.47;;
10295;SDS011;5193;51.032;6.356;2023-04-15T11:50:13;4.37;;;2.60;;
10295;SDS011;5193;51.032;6.356;2023-04-15T11:52:59;4.00;;;3.07;;
10295;SDS011;5193;51.032;6.356;2023-04-15T11:55:27;3.30;;;2.67;;
10295;SDS011;5193;51.032;6.356;2023-04-15T11:58:09;4.03;;;3.20;;
10295;SDS011;5193;51.032;6.356;2023-04-15T12:00:58;4.17;;;3.40;;
10295;SDS011;5193;51.032;6.356;2023-04-15T12:13:52;3.30;;;2.30;;
10295;SDS011;5193;51.032;6.356;2023-04-15T12:16:19;2.50;;;2.30;;
10295;SDS011;5193;51.032;6.356;2023-04-15T12:18:45;3.07;;;2.77;;
10295;SDS011;5193;51.032;6.356;2023-04-15T12:21:22;2.57;;;2.33;;
10295;SDS011;5193;51.032;6.356;2023-04-15T12:23:49;4.93;;;2.60;;
10295;SDS011;5193;51.032;6.356;2023-04-15T12:26:15;4.00;;;2.90;;
10295;SDS011;5193;51.032;6.356;2023-04-15T12:28:42;3.73;;;2.10;;
10295;SDS011;5193;51.032;6.356;2023-04-15T12:31:08;2.80;;;2.43;;
10295;SDS011;5193;51.032;6.356;2023-04-15T12:33:34;2.80;;;2.60;;
10295;SDS011;5193;51.032;6.356;2023-04-15T12:36:00;2.33;;;1.93;;
10295;SDS011;5193;51.032;6.356;2023-04-15T12:38:26;3.40;;;2.20;;
10295;SDS011;5193;51.032;6.356;2023-04-15T12:40:52;3.27;;;2.90;;
10295;SDS011;5193;51.032;6.356;2023-04-15T12:43:18;4.03;;;2.70;;
10295;SDS011;5193;51.032;6.356;2023-04-15T12:45:44;3.53;;;2.77;;
10295;SDS011;5193;51.032;6.356;2023-04-15T12:48:10;3.13;;;2.70;;
10295;SDS011;5193;51.032;6.356;2023-04-15T12:50:36;2.50;;;1.83;;
10295;SDS011;5193;51.032;6.356;2023-04-15T12:53:02;6.07;;;2.27;;
10295;SDS011;5193;51.032;6.356;2023-04-15T12:55:27;2.80;;;2.40;;
10295;SDS011;5193;51.032;6.356;2023-04-15T12:57:54;3.40;;;2.20;;
10295;SDS011;5193;51.032;6.356;2023-04-15T13:00:21;4.37;;;2.40;;
10295;SDS011;5193;51.032;6.356;2023-04-15T13:02:47;2.83;;;2.53;;
10295;SDS011;5193;51.032;6.356;2023-04-15T13:05:13;2.27;;;1.80;;
10295;SDS011;5193;51.032;6.356;2023-04-15T13:07:39;3.40;;;2.47;;
10295;SDS011;5193;51.032;6.356;2023-04-15T13:10:06;3.97;;;2.53;;
10295;SDS011;5193;51.032;6.356;2023-04-15T13:12:32;2.63;;;2.30;;
10295;SDS011;5193;51.032;6.356;2023-04-15T13:15:01;4.13;;;2.67;;
10295;SDS011;5193;51.032;6.356;2023-04-15T13:17:28;2.70;;;2.30;;
10295;SDS011;5193;51.032;6.356;2023-04-15T13:19:53;15.53;;;3.00;;
10295;SDS011;5193;51.032;6.356;2023-04-15T13:22:19;2.90;;;2.00;;
10295;SDS011;5193;51.032;6.356;2023-04-15T13:24:45;3.37;;;2.60;;
10295;SDS011;5193;51.032;6.356;2023-04-15T13:27:10;4.00;;;3.07;;
10295;SDS011;5193;51.032;6.356;2023-04-15T13:29:36;3.47;;;2.67;;
10295;SDS011;5193;51.032;6.356;2023-04-15T13:32:01;3.67;;;3.33;;
10295;SDS011;5193;51.032;6.356;2023-04-15T13:34:27;4.83;;;3.23;;
10295;SDS011;5193;51.032;6.356;2023-04-15T13:36:53;3.70;;;2.97;;
10295;SDS011;5193;51.032;6.356;2023-04-15T13:39:18;3.77;;;2.90;;
10295;SDS011;5193;51.032;6.356;2023-04-15T13:41:44;2.97;;;2.17;;
10295;SDS011;5193;51.032;6.356;2023-04-15T13:44:10;3.10;;;2.20;;
10295;SDS011;5193;51.032;6.356;2023-04-15T13:46:36;3.13;;;2.10;;
10295;SDS011;5193;51.032;6.356;2023-04-15T13:49:03;2.67;;;2.37;;
10295;SDS011;5193;51.032;6.356;2023-04-15T13:51:29;2.40;;;2.20;;
10295;SDS011;5193;51.032;6.356;2023-04-15T13:53:55;3.83;;;2.40;;
10295;SDS011;5193;51.032;6.356;2023-04-15T13:56:22;3.83;;;2.60;;
10295;SDS011;5193;51.032;6.356;2023-04-15T13:58:48;2.47;;;2.00;;
10295;SDS011;5193;51.032;6.356;2023-04-15T14:01:13;2.17;;;1.63;;
10295;SDS011;5193;51.032;6.356;2023-04-15T14:03:39;2.20;;;2.00;;
10295;SDS011;5193;51.032;6.356;2023-04-15T14:06:05;2.60;;;1.70;;
10295;SDS011;5193;51.032;6.356;2023-04-15T14:08:30;2.83;;;1.77;;
10295;SDS011;5193;51.032;6.356;2023-04-15T14:10:56;2.97;;;2.13;;
10295;SDS011;5193;51.032;6.356;2023-04-15T14:13:22;2.83;;;2.53;;
10295;SDS011;5193;51.032;6.356;2023-04-15T14:15:47;3.40;;;2.00;;
10295;SDS011;5193;51.032;6.356;2023-04-15T14:18:13;6.27;;;2.57;;
10295;SDS011;5193;51.032;6.356;2023-04-15T14:20:38;3.00;;;2.70;;
10295;SDS011;5193;51.032;6.356;2023-04-15T14:23:04;3.47;;;2.57;;
10295;SDS011;5193;51.032;6.356;2023-04-15T14:25:30;4.93;;;2.63;;
10295;SDS011;5193;51.032;6.356;2023-04-15T14:27:55;3.00;;;2.70;;
10295;SDS011;5193;51.032;6.356;2023-04-15T14:30:21;4.23;;;2.50;;
10295;SDS011;5193;51.032;6.356;2023-04-15T14:32:46;2.87;;;2.43;;
10295;SDS011;5193;51.032;6.356;2023-04-15T14:35:12;3.87;;;2.60;;
10295;SDS011;5193;51.032;6.356;2023-04-15T14:37:37;3.63;;;2.37;;
10295;SDS011;5193;51.032;6.356;2023-04-15T14:40:03;3.03;;;2.40;;
10295;SDS011;5193;51.032;6.356;2023-04-15T14:42:29;5.67;;;2.63;;
10295;SDS011;5193;51.032;6.356;2023-04-15T14:44:54;4.83;;;2.60;;
10295;SDS011;5193;51.032;6.356;2023-04-15T14:47:20;6.00;;;2.90;;
10295;SDS011;5193;51.032;6.356;2023-04-15T14:49:46;2.83;;;2.10;;
10295;SDS011;5193;51.032;6.356;2023-04-15T14:52:11;2.63;;;1.93;;
10295;SDS011;5193;51.032;6.356;2023-04-15T14:54:37;3.10;;;2.03;;
10295;SDS011;5193;51.032;6.356;2023-04-15T14:57:02;2.80;;;2.10;;
10295;SDS011;5193;51.032;6.356;2023-04-15T14:59:28;1.97;;;1.47;;
10295;SDS011;5193;51.032;6.356;2023-04-15T15:01:53;5.30;;;2.43;;
10295;SDS011;5193;51.032;6.356;2023-04-15T15:04:19;3.17;;;2.30;;
10295;SDS011;5193;51.032;6.356;2023-04-15T15:06:45;2.63;;;2.00;;
10295;SDS011;5193;51.032;6.356;2023-04-15T15:09:11;3.53;;;2.37;;
10295;SDS011;5193;51.032;6.356;2023-04-15T15:11:36;2.17;;;1.70;;
10295;SDS011;5193;51.032;6.356;2023-04-15T15:14:02;2.63;;;1.80;;
10295;SDS011;5193;51.032;6.356;2023-04-15T15:16:27;2.40;;;1.80;;
10295;SDS011;5193;51.032;6.356;2023-04-15T15:18:53;2.47;;;1.97;;